East Olympia, Washington
Current Conditions -  °F | °C
As of 5:54 AM on Saturday 20 Dec 2014 (Local Time) from KOLM Reporting Station
Light Rain Light Rain  
Wind Chill: 40°   Ceiling: 4900
Heat Index: 46°   Visibility: 9mi
Dew Point: 43°   Wind: 14mph
Humidity: 89%   Direction: 180°S
Pressure: 29.64"   Gusts: 21mph
Location:  46.97°N, 122.84°W
Report Text: KOLM 201354Z AUTO 18012G18KT 9SM -RA OVC049 08/06 A2964 RMK AO2 SLP037 P0011 T00780061
Loading
Personal Weather Stations






























Interactive Weather Map New forecast layout! Learn more

10-Day Weather Forecast

Advertisements
Track Severe Weather on mobile